createdAt,value
2022-11-30T09:49:46.274Z,53.50
2022-11-30T09:52:19.559Z,46.10
2022-11-30T09:54:47.387Z,48.70
2022-11-30T09:57:33.965Z,50.40
2022-11-30T10:00:12.804Z,49.60
2022-11-30T10:02:39.244Z,61.50
2022-11-30T10:05:14.521Z,50.00
2022-11-30T10:08:16.757Z,41.50
2022-11-30T10:10:56.292Z,45.90
2022-11-30T10:13:40.298Z,46.50
2022-11-30T10:16:06.741Z,46.50
2022-11-30T10:18:50.245Z,43.70
2022-11-30T10:21:32.964Z,51.80
2022-11-30T10:24:08.461Z,52.00
2022-11-30T10:26:37.547Z,53.00
2022-11-30T10:29:17.564Z,44.50
2022-11-30T10:31:46.702Z,61.90
2022-11-30T10:34:20.612Z,51.00
2022-11-30T10:36:53.671Z,49.40
2022-11-30T10:39:25.660Z,42.80
2022-11-30T10:41:59.268Z,46.60
2022-11-30T10:44:33.043Z,48.20
2022-11-30T10:47:11.279Z,46.10
2022-11-30T10:49:41.870Z,47.80
2022-11-30T10:52:08.618Z,49.30
2022-11-30T10:54:38.473Z,50.00
2022-11-30T10:57:08.331Z,42.00
2022-11-30T10:59:43.423Z,38.00
2022-11-30T11:02:34.148Z,44.00
2022-11-30T11:05:30.434Z,49.40
2022-11-30T11:08:06.726Z,37.10
2022-11-30T11:10:33.364Z,40.40
2022-11-30T11:12:59.723Z,45.90
2022-11-30T11:15:31.599Z,42.70
2022-11-30T11:18:17.438Z,40.10
2022-11-30T11:20:44.121Z,45.10
2022-11-30T11:23:29.495Z,46.80
2022-11-30T11:25:56.905Z,50.70
2022-11-30T11:28:24.673Z,48.70
2022-11-30T11:30:56.323Z,33.20
2022-11-30T11:33:25.830Z,39.40
2022-11-30T11:36:09.151Z,37.40
2022-11-30T11:38:42.424Z,49.10
2022-11-30T11:41:19.565Z,45.70
2022-11-30T11:44:22.214Z,45.50
2022-11-30T11:46:59.097Z,43.20
2022-11-30T11:49:28.203Z,46.50
2022-11-30T11:52:10.386Z,59.30
2022-11-30T11:54:55.398Z,48.70
2022-11-30T11:57:33.328Z,40.90
2022-11-30T12:00:16.272Z,43.90
2022-11-30T12:03:15.180Z,37.20
2022-11-30T12:06:17.869Z,91.90
2022-11-30T12:08:57.008Z,37.00
2022-11-30T12:11:41.010Z,35.40
2022-11-30T12:14:13.029Z,43.90
2022-11-30T12:17:18.563Z,50.20
2022-11-30T12:20:04.770Z,46.20
2022-11-30T12:22:54.386Z,53.60
2022-11-30T12:25:23.523Z,49.30
2022-11-30T12:28:06.738Z,47.50
2022-11-30T12:31:04.010Z,43.40
2022-11-30T12:33:53.534Z,39.70
2022-11-30T12:36:43.416Z,42.60
2022-11-30T12:39:24.358Z,45.00
2022-11-30T12:42:08.529Z,44.20
2022-11-30T12:45:06.774Z,37.00
2022-11-30T12:47:48.243Z,48.80
2022-11-30T12:50:33.295Z,43.90
2022-11-30T12:53:13.436Z,42.50
2022-11-30T12:55:44.925Z,76.80
2022-11-30T12:58:43.157Z,64.60
2022-11-30T13:01:20.792Z,68.80
2022-11-30T13:04:03.279Z,40.50
2022-11-30T13:06:36.980Z,84.10
2022-11-30T13:09:11.203Z,50.70
2022-11-30T13:11:40.816Z,43.50
2022-11-30T13:14:15.732Z,45.30
2022-11-30T13:16:43.528Z,43.40
2022-11-30T13:19:28.576Z,37.50
2022-11-30T13:22:02.374Z,40.10
2022-11-30T13:24:35.161Z,38.10
2022-11-30T13:27:10.337Z,62.70
2022-11-30T13:30:09.506Z,47.70
2022-11-30T13:35:28.778Z,42.40
2022-11-30T13:38:34.716Z,35.60
2022-11-30T13:41:08.312Z,36.50
2022-11-30T13:43:42.151Z,43.40
2022-11-30T13:46:24.566Z,37.60
2022-11-30T13:49:27.363Z,37.10
2022-11-30T13:52:20.690Z,35.00
2022-11-30T13:54:47.408Z,37.30
2022-11-30T13:57:30.011Z,37.70
2022-11-30T14:00:01.479Z,35.80
2022-11-30T14:02:41.665Z,36.70
2022-11-30T14:05:24.947Z,32.70
2022-11-30T14:07:51.193Z,64.70
2022-11-30T14:10:28.726Z,32.00
2022-11-30T14:13:00.322Z,32.90
2022-11-30T14:15:42.875Z,36.60
2022-11-30T14:18:09.024Z,31.00
2022-11-30T14:20:51.268Z,34.60
2022-11-30T14:23:22.478Z,28.20
2022-11-30T14:25:51.553Z,38.60
2022-11-30T14:28:22.330Z,32.90
2022-11-30T14:30:49.822Z,40.80
2022-11-30T14:33:39.107Z,26.50
2022-11-30T14:36:07.050Z,35.60
2022-11-30T14:38:40.030Z,61.10
2022-11-30T14:41:27.220Z,29.80
2022-11-30T14:44:13.566Z,34.00
2022-11-30T14:46:40.265Z,31.40
2022-11-30T14:49:29.418Z,36.40
2022-11-30T14:52:03.755Z,34.50
2022-11-30T14:54:53.464Z,35.20
2022-11-30T14:57:41.195Z,37.10
2022-11-30T15:00:16.672Z,37.30
2022-11-30T15:02:44.728Z,46.50
2022-11-30T15:05:18.906Z,39.70
2022-11-30T15:07:45.735Z,35.70
2022-11-30T15:10:17.314Z,36.80
2022-11-30T15:12:44.382Z,35.40
2022-11-30T15:15:19.756Z,44.50
2022-11-30T15:17:52.522Z,39.40
2022-11-30T15:20:25.259Z,39.80
2022-11-30T15:22:53.820Z,37.10
2022-11-30T15:25:23.752Z,38.60
2022-11-30T15:27:50.422Z,39.20
2022-11-30T15:30:17.106Z,35.40
2022-11-30T15:32:45.972Z,33.00
2022-11-30T15:35:19.362Z,34.20
2022-11-30T15:37:47.135Z,35.90
2022-11-30T15:40:20.694Z,39.60
2022-11-30T15:45:20.919Z,58.00
2022-11-30T15:47:48.037Z,32.90
2022-11-30T15:50:32.382Z,36.60
2022-11-30T15:53:24.966Z,39.30
2022-11-30T15:55:54.347Z,39.60
2022-11-30T15:58:24.797Z,36.90
2022-11-30T16:01:11.641Z,35.30
2022-11-30T16:03:59.937Z,32.80
2022-11-30T16:06:46.583Z,29.80
2022-11-30T16:09:23.366Z,31.50
2022-11-30T16:11:53.415Z,31.90
2022-11-30T16:14:19.871Z,31.00
2022-11-30T16:16:46.241Z,34.20
2022-11-30T16:19:12.752Z,33.90
2022-11-30T16:21:39.307Z,39.20
2022-11-30T16:24:05.923Z,35.20
2022-11-30T16:29:19.237Z,32.70
2022-11-30T16:31:45.594Z,31.70
2022-11-30T16:34:11.942Z,34.60
2022-11-30T16:36:38.317Z,33.80
2022-11-30T16:39:05.055Z,35.20
2022-11-30T16:41:33.918Z,36.20
2022-11-30T16:44:00.141Z,39.70
2022-11-30T16:46:28.641Z,37.90
2022-11-30T16:48:55.325Z,104.60
2022-11-30T16:51:27.537Z,142.10
2022-11-30T16:53:54.578Z,638.10
2022-11-30T16:56:21.324Z,587.50
2022-11-30T16:58:47.970Z,354.00
2022-11-30T17:01:24.636Z,70.20
2022-11-30T17:03:51.374Z,41.50
2022-11-30T17:06:21.976Z,214.50
2022-11-30T17:08:49.440Z,64.40
2022-11-30T17:11:22.558Z,41.50
2022-11-30T17:13:48.727Z,65.20
2022-11-30T17:16:15.056Z,32.70
2022-11-30T17:18:41.468Z,62.20
2022-11-30T17:21:13.725Z,45.40
2022-11-30T17:23:39.909Z,354.20
2022-11-30T17:26:06.107Z,241.90
2022-11-30T17:28:32.404Z,48.50
2022-11-30T17:30:58.679Z,30.00
2022-11-30T17:33:24.842Z,27.60
2022-11-30T17:35:51.147Z,25.30
2022-11-30T17:38:17.348Z,24.30
2022-11-30T17:40:44.410Z,29.50
2022-11-30T17:43:10.606Z,22.90
2022-11-30T17:45:39.995Z,22.60
2022-11-30T17:48:06.247Z,132.90
2022-11-30T17:50:32.567Z,220.80
2022-11-30T17:52:58.853Z,134.50
2022-11-30T17:55:26.372Z,69.40
2022-11-30T17:57:52.543Z,20.70
2022-11-30T18:00:19.507Z,22.10
2022-11-30T18:02:50.181Z,20.80
2022-11-30T18:05:16.521Z,20.70
2022-11-30T18:07:42.942Z,20.80
2022-11-30T18:10:09.861Z,26.80
2022-11-30T18:12:36.424Z,19.80
2022-11-30T18:15:03.225Z,29.10
2022-11-30T18:17:30.896Z,15.80
2022-11-30T18:19:57.044Z,21.70
2022-11-30T18:22:23.972Z,17.60
2022-11-30T18:24:50.530Z,18.80
2022-11-30T18:27:16.974Z,17.00
2022-11-30T18:29:43.152Z,27.20
2022-11-30T18:32:09.710Z,25.10
2022-11-30T18:34:35.955Z,25.20
2022-11-30T18:37:02.310Z,19.10
2022-11-30T18:39:28.625Z,17.40
2022-11-30T18:41:55.150Z,16.80
2022-11-30T18:44:21.604Z,19.90
2022-11-30T18:46:47.820Z,17.20
2022-11-30T18:49:14.039Z,16.10
2022-11-30T18:51:40.249Z,45.90
2022-11-30T18:54:09.212Z,38.30
2022-11-30T18:56:37.401Z,27.20
2022-11-30T18:59:09.787Z,20.20
2022-11-30T19:01:36.203Z,17.00
2022-11-30T19:04:06.098Z,17.30
2022-11-30T19:06:32.484Z,19.60
2022-11-30T19:09:02.398Z,19.20
2022-11-30T19:11:28.785Z,17.10
2022-11-30T19:13:56.585Z,14.00
2022-11-30T19:16:23.887Z,13.50
2022-11-30T19:18:51.264Z,15.50
2022-11-30T19:21:19.747Z,18.30
2022-11-30T19:23:47.232Z,16.70
2022-11-30T19:26:13.952Z,15.60
2022-11-30T19:28:42.393Z,29.20
2022-11-30T19:31:12.374Z,18.80
2022-11-30T19:33:40.816Z,22.30
2022-11-30T19:36:11.552Z,18.20
2022-11-30T19:38:37.879Z,14.80
2022-11-30T19:41:09.153Z,15.40
2022-11-30T19:43:36.252Z,15.10
2022-11-30T19:46:07.707Z,13.20
2022-11-30T19:48:34.923Z,20.30
2022-11-30T19:51:06.525Z,13.90
2022-11-30T19:53:33.983Z,16.30
2022-11-30T19:56:13.020Z,16.70
2022-11-30T19:58:40.380Z,28.40
2022-11-30T20:01:14.516Z,12.80
2022-11-30T20:03:41.074Z,13.10
2022-11-30T20:06:07.365Z,16.20
2022-11-30T20:08:33.592Z,14.30
2022-11-30T20:10:59.755Z,12.90
2022-11-30T20:13:25.949Z,11.20
2022-11-30T20:15:52.180Z,11.00
2022-11-30T20:18:18.538Z,11.80
2022-11-30T20:20:44.753Z,10.90
2022-11-30T20:23:10.977Z,12.20
2022-11-30T20:25:37.510Z,13.50
2022-11-30T20:28:08.272Z,12.80
2022-11-30T20:30:37.510Z,15.00
2022-11-30T20:33:03.721Z,11.60
2022-11-30T20:35:29.945Z,15.10
2022-11-30T20:37:56.136Z,14.00
2022-11-30T20:40:23.069Z,12.60
2022-11-30T20:42:50.835Z,13.30
2022-11-30T20:45:17.293Z,14.50
2022-11-30T20:47:43.756Z,15.10
2022-11-30T20:50:10.453Z,14.10
2022-11-30T20:52:37.803Z,14.50
2022-11-30T20:55:04.350Z,14.10
2022-11-30T20:57:30.565Z,15.40
2022-11-30T20:59:56.769Z,13.50
2022-11-30T21:02:23.051Z,16.70
2022-11-30T21:04:49.537Z,12.20
2022-11-30T21:07:16.064Z,14.10
2022-11-30T21:09:42.633Z,12.40
2022-11-30T21:12:08.785Z,17.80
2022-11-30T21:14:35.571Z,12.90
2022-11-30T21:17:01.756Z,20.10
2022-11-30T21:19:28.015Z,13.20
2022-11-30T21:21:55.271Z,16.90
2022-11-30T21:24:21.464Z,15.30
2022-11-30T21:26:47.687Z,21.30
2022-11-30T21:29:15.783Z,18.50
2022-11-30T21:31:42.586Z,26.80
2022-11-30T21:34:09.024Z,18.10
2022-11-30T21:36:35.308Z,12.80
2022-11-30T21:39:06.333Z,15.50
2022-11-30T21:41:36.810Z,14.40
2022-11-30T21:44:04.760Z,12.30
2022-11-30T21:46:31.275Z,36.50
2022-11-30T21:48:57.707Z,13.40
2022-11-30T21:51:27.023Z,15.20
2022-11-30T21:53:56.171Z,14.80
2022-11-30T21:56:25.301Z,14.30
2022-11-30T21:58:52.163Z,16.90
2022-11-30T22:01:29.875Z,11.60
2022-11-30T22:03:57.473Z,14.30
2022-11-30T22:06:25.412Z,28.80
2022-11-30T22:08:51.739Z,12.00
2022-11-30T22:11:21.237Z,18.60
2022-11-30T22:13:52.788Z,15.90
2022-11-30T22:16:21.236Z,16.30
2022-11-30T22:18:50.709Z,13.70
2022-11-30T22:21:19.226Z,13.60
2022-11-30T22:23:51.777Z,16.50
2022-11-30T22:26:20.901Z,16.90
2022-11-30T22:28:49.792Z,16.10
2022-11-30T22:31:18.273Z,16.20
2022-11-30T22:33:45.177Z,10.60
2022-11-30T22:36:14.797Z,13.80
2022-11-30T22:38:41.477Z,14.00
2022-11-30T22:41:16.384Z,14.90
2022-11-30T22:43:45.398Z,17.10
2022-11-30T22:46:14.200Z,17.60
2022-11-30T22:48:40.845Z,16.60
2022-11-30T22:51:13.613Z,18.00
2022-11-30T22:53:40.936Z,19.30
2022-11-30T22:56:11.698Z,16.40
2022-11-30T22:58:39.556Z,13.80
2022-11-30T23:01:23.988Z,14.70
2022-11-30T23:03:52.767Z,13.40
2022-11-30T23:06:20.222Z,13.50
2022-11-30T23:08:47.719Z,13.70
2022-11-30T23:11:17.284Z,16.60
2022-11-30T23:13:43.949Z,13.70
2022-11-30T23:16:12.303Z,13.60
2022-11-30T23:18:39.770Z,14.20
2022-11-30T23:21:10.278Z,12.90
2022-11-30T23:23:36.484Z,12.20
2022-11-30T23:26:20.583Z,12.50
2022-11-30T23:28:48.810Z,14.00
2022-11-30T23:31:32.448Z,13.70
2022-11-30T23:34:03.643Z,11.80
2022-11-30T23:36:29.974Z,11.80
2022-11-30T23:38:58.566Z,13.20
2022-11-30T23:41:26.449Z,13.90
2022-11-30T23:43:52.972Z,19.90
2022-11-30T23:46:19.612Z,10.90
2022-11-30T23:48:45.841Z,17.00
2022-11-30T23:51:12.016Z,15.50
2022-11-30T23:53:38.420Z,12.20
2022-11-30T23:56:08.456Z,12.00
2022-11-30T23:58:34.853Z,15.90
